Time;durP1;ratioP1;P1;durP2;ratioP2;P2;SDS_P1;SDS_P2;PMS_P1;PMS_P2;Temp;Humidity;BMP_temperature;BMP_pressure;BME280_temperature;BME280_humidity;BME280_pressure;Samples;Min_cycle;Max_cycle;Signal;HPM_P1;HPM_P2
2021/08/12 00:01:37;;;;;;;5.55;5.03;;;;;;;18.03;75.63;100580.28;6143589;23;20015;-73
2021/08/12 00:24:31;;;;;;;;;;;;;;;;;;;;;
2021/08/12 00:40:47;;;;;;;6.50;5.30;;;;;;;17.95;77.13;100563.28;5916020;24;20072;-79
2021/08/12 00:44:09;;;;;;;6.28;5.75;;;;;;;18.13;77.71;100585.56;5895106;24;20045;-78
2021/08/12 01:30:29;;;;;;;;;;;;;;;;;;;;;
2021/08/12 01:47:03;;;;;;;;;;;;;;;;;;;;;
2021/08/12 02:10:14;;;;;;;;;;;;;;;;;;;;;
2021/08/12 02:13:49;;;;;;;;;;;;;;;;;;;;;
2021/08/12 02:16:41;;;;;;;0.10;0.10;;;;;;;18.25;75.56;100538.78;5994304;23;20414;-78
2021/08/12 02:33:03;;;;;;;0.30;0.30;;;;;;;17.95;73.56;100543.94;5977366;23;20452;-77
2021/08/12 02:39:26;;;;;;;0.20;0.20;;;;;;;17.94;73.77;100560.84;5979918;24;20049;-76
2021/08/12 02:42:11;;;;;;;0.10;0.10;;;;;;;17.95;73.59;100565.25;5984206;24;20023;-76
2021/08/12 02:44:43;;;;;;;0.10;0.10;;;;;;;18.02;73.68;100573.09;6016649;23;20104;-76
2021/08/12 02:47:28;;;;;;;0.10;0.10;;;;;;;17.89;73.43;100555.41;6120871;23;20002;-76
2021/08/12 02:49:58;;;;;;;0.00;0.00;;;;;;;17.92;73.38;100563.13;6158256;23;20417;-75
2021/08/12 02:52:40;;;;;;;;;;;;;;;;;;;;;
2021/08/12 03:20:29;;;;;;;0.00;0.00;;;;;;;18.05;72.89;100575.28;6047624;23;20022;-77
2021/08/12 03:26:36;;;;;;;0.10;0.10;;;;;;;18.02;72.52;100573.09;6046906;23;20071;-79
2021/08/12 03:36:30;;;;;;;0.00;0.00;;;;;;;18.03;72.25;100569.22;6048579;23;20011;-80
2021/08/12 03:42:52;;;;;;;0.10;0.00;;;;;;;17.99;72.61;100562.66;6146692;23;20490;-80
2021/08/12 03:49:05;;;;;;;0.90;0.90;;;;;;;17.89;72.44;100564.50;6163321;23;20065;-79
2021/08/12 03:54:53;;;;;;;0.50;0.32;;;;;;;17.74;72.67;100556.56;6161729;23;20356;-76
2021/08/12 04:16:29;;;;;;;;;;;;;;;;;;;;;
2021/08/12 04:23:27;;;;;;;2.25;1.25;;;;;;;17.28;73.36;100561.94;6099295;23;20064;-77
2021/08/12 04:29:15;;;;;;;4.15;1.33;;;;;;;17.08;73.46;100551.31;6101575;23;20349;-79
2021/08/12 04:42:03;;;;;;;0.90;0.90;;;;;;;17.02;73.24;100547.81;6103221;23;20026;-80
2021/08/12 04:45:34;;;;;;;;;;;;;;;;;;;;;
2021/08/12 04:52:42;;;;;;;;;;;;;;;;;;;;;
2021/08/12 05:10:54;;;;;;;;;;;;;;;;;;;;;
2021/08/12 05:17:57;;;;;;;0.70;0.70;;;;;;;17.41;72.65;100573.31;6017429;23;20054;-79
2021/08/12 06:02:05;;;;;;;2.42;1.85;;;;;;;17.36;72.92;100590.00;5895478;24;20017;-82
2021/08/12 06:09:14;;;;;;;;;;;;;;;;;;;;;
2021/08/12 06:37:25;;;;;;;1.58;1.10;;;;;;;18.08;72.47;100596.78;5986846;24;20133;-77
2021/08/12 06:53:52;;;;;;;1.38;1.00;;;;;;;18.28;71.68;100576.91;5935304;24;20021;-76
2021/08/12 06:59:32;;;;;;;0.93;0.93;;;;;;;18.62;71.09;100586.56;5931645;24;20020;-77
2021/08/12 07:09:54;;;;;;;;;;;;;;;;;;;;;
2021/08/12 07:16:25;;;;;;;0.63;0.63;;;;;;;19.12;71.33;100585.56;6100688;23;20021;-76
2021/08/12 07:22:24;;;;;;;0.30;0.30;;;;;;;19.50;70.71;100573.91;6101304;23;20048;-77
2021/08/12 07:32:20;;;;;;;0.68;0.68;;;;;;;19.93;70.46;100593.75;6016254;23;20035;-78
2021/08/12 07:38:06;;;;;;;0.70;0.70;;;;;;;19.84;68.99;100585.44;6071644;23;20090;-78
2021/08/12 07:44:29;;;;;;;0.80;0.80;;;;;;;19.59;69.01;100585.03;6002168;23;20597;-76
2021/08/12 07:47:58;;;;;;;;;;;;;;;;;;;;;
2021/08/12 07:50:55;;;;;;;;;;;;;;;;;;;;;
2021/08/12 08:00:32;;;;;;;1.85;1.30;;;;;;;19.54;69.78;100601.84;5933288;23;20023;-76
2021/08/12 08:06:52;;;;;;;1.48;1.38;;;;;;;19.51;69.73;100594.16;5934849;23;20589;-79
2021/08/12 08:13:26;;;;;;;0.57;0.57;;;;;;;19.62;70.16;100606.56;5992952;24;20022;-76
2021/08/12 08:16:48;;;;;;;0.70;0.70;;;;;;;19.69;69.26;100606.91;5951326;24;20004;-76
2021/08/12 08:22:54;;;;;;;1.05;0.95;;;;;;;19.66;70.10;100593.69;5938796;24;20333;-74
2021/08/12 08:25:55;;;;;;;;;;;;;;;;;;;;;
2021/08/12 08:28:27;;;;;;;2.80;2.60;;;;;;;19.64;69.98;100571.03;6138645;23;20086;-74
2021/08/12 08:31:46;;;;;;;5.20;3.20;;;;;;;19.84;70.32;100607.63;6125617;22;20051;-77
2021/08/12 08:34:17;;;;;;;3.60;3.35;;;;;;;19.52;70.66;100584.69;6168668;23;20017;-76
2021/08/12 08:42:59;;;;;;;1.38;1.30;;;;;;;19.61;70.88;100577.22;6191048;23;20703;-73
2021/08/12 08:45:26;;;;;;;2.55;2.35;;;;;;;19.75;71.41;100592.91;6162212;23;20016;-75
2021/08/12 08:48:05;;;;;;;2.33;1.38;;;;;;;19.68;71.25;100588.66;6162229;23;20061;-74
2021/08/12 08:50:32;;;;;;;2.13;2.03;;;;;;;19.75;71.32;100601.22;6142209;23;20009;-75
2021/08/12 08:52:59;;;;;;;2.30;2.10;;;;;;;19.65;71.44;100574.59;6188287;23;20008;-74
2021/08/12 08:55:24;;;;;;;4.03;1.75;;;;;;;19.86;71.54;100603.41;6187599;23;20005;-73
2021/08/12 08:57:55;;;;;;;0.88;0.88;;;;;;;20.00;71.65;100607.97;6164212;23;20019;-75
2021/08/12 09:00:22;;;;;;;2.03;1.92;;;;;;;20.02;71.08;100597.38;6162427;23;20455;-76
2021/08/12 09:02:49;;;;;;;2.83;2.58;;;;;;;19.97;71.26;100606.66;6162745;23;20447;-75
2021/08/12 09:05:15;;;;;;;2.33;2.13;;;;;;;19.93;72.05;100608.47;6165188;23;20012;-75
2021/08/12 09:07:41;;;;;;;3.28;3.08;;;;;;;19.93;71.25;100605.69;6185341;23;20058;-77
2021/08/12 09:10:09;;;;;;;3.03;2.50;;;;;;;19.94;71.49;100600.97;6166500;23;20013;-75
2021/08/12 09:12:36;;;;;;;3.97;2.40;;;;;;;19.91;71.46;100596.88;6163761;23;20020;-74
2021/08/12 09:15:09;;;;;;;7.22;2.50;;;;;;;19.81;71.82;100602.72;6164326;23;20017;-76
2021/08/12 09:17:35;;;;;;;4.30;3.15;;;;;;;19.80;71.65;100601.09;6165243;23;20012;-75
2021/08/12 09:20:07;;;;;;;3.53;2.47;;;;;;;19.74;71.93;100602.38;6164310;23;20057;-78
2021/08/12 09:23:01;;;;;;;2.90;2.70;;;;;;;19.86;72.32;100611.72;6160524;23;20032;-80
2021/08/12 09:25:47;;;;;;;3.15;2.85;;;;;;;19.79;72.33;100607.81;6165687;23;20647;-78
2021/08/12 09:28:22;;;;;;;5.95;3.15;;;;;;;19.64;72.75;100603.47;6188175;23;20013;-79
2021/08/12 09:31:02;;;;;;;3.63;2.65;;;;;;;19.57;72.82;100597.63;6163823;23;20020;-78
2021/08/12 09:33:40;;;;;;;3.30;2.88;;;;;;;19.54;73.09;100615.72;6165517;23;20047;-77
2021/08/12 09:36:22;;;;;;;2.35;2.15;;;;;;;19.51;72.66;100605.25;6193416;23;20013;-82
2021/08/12 09:39:12;;;;;;;1.90;1.55;;;;;;;19.66;73.23;100613.13;6165335;23;20072;-81
2021/08/12 09:41:59;;;;;;;2.25;2.15;;;;;;;19.60;73.17;100613.59;6168096;23;20052;-78
2021/08/12 09:44:41;;;;;;;3.38;3.08;;;;;;;19.56;73.19;100605.09;6190763;23;20009;-76
2021/08/12 09:47:16;;;;;;;2.67;1.50;;;;;;;19.59;72.92;100601.69;6165579;23;20020;-75
2021/08/12 09:49:45;;;;;;;2.15;1.98;;;;;;;19.74;72.71;100613.47;6164727;23;20020;-76
2021/08/12 09:52:47;;;;;;;4.47;3.33;;;;;;;19.82;72.50;100615.47;6163863;23;20076;-77
2021/08/12 09:55:19;;;;;;;2.55;2.35;;;;;;;19.63;72.56;100611.00;6188355;23;19997;-76
2021/08/12 09:57:54;;;;;;;2.95;2.67;;;;;;;19.61;72.88;100610.50;6190532;23;20024;-76
2021/08/12 10:00:58;;;;;;;;;;;;;;;;;;;;;
2021/08/12 10:03:31;;;;;;;2.88;2.70;;;;;;;19.56;73.40;100613.41;6189453;23;20054;-77
2021/08/12 10:06:20;;;;;;;2.85;2.65;;;;;;;19.45;73.72;100607.38;6161540;23;20121;-75
2021/08/12 10:08:45;;;;;;;1.92;1.83;;;;;;;19.42;73.62;100607.19;6157408;23;19997;-75
2021/08/12 10:12:59;;;;;;;;;;;;;;;;;;;;;
2021/08/12 10:14:43;;;;;;;2.15;2.05;;;;;;;19.46;73.95;100583.22;6149759;23;20027;-74
2021/08/12 10:17:09;;;;;;;2.63;2.53;;;;;;;19.59;73.59;100593.34;6142480;23;20005;-76
2021/08/12 10:19:35;;;;;;;1.90;1.80;;;;;;;19.68;73.92;100602.53;6192420;23;20005;-75
2021/08/12 10:22:00;;;;;;;1.70;1.60;;;;;;;19.82;73.67;100598.81;6192232;23;20013;-76
2021/08/12 10:24:29;;;;;;;1.60;1.40;;;;;;;19.92;73.88;100601.28;6191687;23;20005;-83
2021/08/12 10:26:56;;;;;;;1.60;1.50;;;;;;;19.96;73.85;100605.06;6142000;23;20096;-74
2021/08/12 10:29:23;;;;;;;0.98;0.98;;;;;;;19.92;73.54;100601.28;6167396;23;20083;-76
2021/08/12 10:31:51;;;;;;;0.90;0.90;;;;;;;19.88;73.34;100603.06;6192466;23;20096;-74
2021/08/12 10:34:18;;;;;;;1.30;1.30;;;;;;;19.85;73.57;100612.03;6163012;23;20013;-75
2021/08/12 10:36:47;;;;;;;1.20;1.10;;;;;;;19.86;73.65;100610.91;6140214;23;20088;-74
2021/08/12 10:39:13;;;;;;;1.30;1.20;;;;;;;19.85;73.22;100610.09;6163408;23;20383;-74
2021/08/12 10:41:41;;;;;;;1.48;1.38;;;;;;;19.85;72.57;100609.28;6191332;23;20048;-74
2021/08/12 10:44:07;;;;;;;1.40;1.40;;;;;;;19.77;72.74;100618.34;6189068;23;20009;-75
2021/08/12 10:46:40;;;;;;;1.98;1.73;;;;;;;19.80;73.12;100607.47;6164267;23;20015;-75
2021/08/12 10:49:29;;;;;;;1.75;1.65;;;;;;;19.86;73.32;100619.25;6161729;23;20032;-75
2021/08/12 10:52:08;;;;;;;2.70;1.77;;;;;;;19.78;72.84;100620.00;6192210;23;20001;-74
2021/08/12 10:54:38;;;;;;;3.15;2.95;;;;;;;19.69;73.13;100619.97;6192077;23;20008;-74
2021/08/12 10:57:13;;;;;;;2.65;2.03;;;;;;;19.70;72.69;100618.84;6165027;23;20400;-75
2021/08/12 10:59:39;;;;;;;3.85;2.03;;;;;;;19.67;72.69;100620.31;6165439;23;20454;-75
2021/08/12 11:02:40;;;;;;;1.95;1.73;;;;;;;19.81;73.08;100624.94;6164811;23;20012;-75
2021/08/12 11:05:06;;;;;;;2.58;1.75;;;;;;;19.82;72.86;100626.56;6129317;23;20368;-75
2021/08/12 11:07:38;;;;;;;3.22;2.20;;;;;;;19.81;72.05;100613.84;6162845;23;20016;-75
2021/08/12 11:10:14;;;;;;;2.47;2.10;;;;;;;19.80;72.58;100617.75;6165541;23;20324;-76
2021/08/12 11:12:52;;;;;;;3.55;1.95;;;;;;;20.01;73.09;100610.44;6164936;23;20011;-76
2021/08/12 11:15:40;;;;;;;2.10;1.60;;;;;;;20.44;72.17;100613.53;6191365;23;20031;-74
2021/08/12 11:18:08;;;;;;;1.70;1.60;;;;;;;20.72;71.03;100619.53;6189166;23;20000;-74
2021/08/12 11:20:39;;;;;;;2.25;2.00;;;;;;;21.28;69.58;100619.53;6166371;23;20036;-75
2021/08/12 11:23:19;;;;;;;1.80;1.70;;;;;;;22.66;68.21;100620.91;6164640;23;20009;-75
2021/08/12 11:26:00;;;;;;;2.88;1.60;;;;;;;23.63;63.66;100612.22;6192258;23;20005;-75
2021/08/12 11:28:41;;;;;;;2.08;1.88;;;;;;;23.98;59.92;100617.31;6188570;23;20025;-75
2021/08/12 11:31:15;;;;;;;1.63;1.52;;;;;;;24.05;58.78;100623.91;6164285;23;20017;-74
2021/08/12 11:33:49;;;;;;;1.40;1.33;;;;;;;24.14;56.81;100609.81;6191752;23;20088;-75
2021/08/12 11:36:20;;;;;;;1.38;1.30;;;;;;;24.18;58.24;100610.72;6167050;23;20032;-74
2021/08/12 11:38:49;;;;;;;1.88;1.77;;;;;;;24.14;55.99;100604.22;6167856;23;20005;-75
2021/08/12 11:41:16;;;;;;;1.67;1.58;;;;;;;24.00;57.00;100603.78;6192880;23;20004;-76
2021/08/12 11:43:42;;;;;;;1.40;1.30;;;;;;;24.00;56.96;100621.34;6194644;23;20031;-76
2021/08/12 11:46:12;;;;;;;1.60;1.50;;;;;;;23.90;56.86;100609.88;6168440;23;20005;-74
2021/08/12 11:48:38;;;;;;;1.35;1.20;;;;;;;23.70;57.14;100613.25;6167376;23;20008;-74
2021/08/12 11:51:05;;;;;;;1.45;1.35;;;;;;;23.55;58.09;100615.94;6166630;23;20015;-75
2021/08/12 11:53:44;;;;;;;1.23;1.23;;;;;;;23.43;58.12;100623.16;6168375;23;20013;-75
2021/08/12 11:56:12;;;;;;;2.58;2.30;;;;;;;23.01;57.96;100623.31;6166386;23;20008;-76
2021/08/12 11:58:38;;;;;;;2.22;2.03;;;;;;;22.63;58.82;100605.69;6166486;23;20008;-75
2021/08/12 12:01:15;;;;;;;1.80;1.70;;;;;;;22.58;59.89;100613.44;6192292;23;20005;-76
2021/08/12 12:03:42;;;;;;;2.55;2.17;;;;;;;22.50;60.22;100617.94;6166628;23;20364;-75
2021/08/12 12:06:08;;;;;;;2.00;1.90;;;;;;;22.48;60.59;100626.63;6192999;23;20001;-76
2021/08/12 12:08:33;;;;;;;2.60;2.40;;;;;;;22.34;60.51;100625.31;6189602;23;20455;-75
2021/08/12 12:11:10;;;;;;;1.70;1.60;;;;;;;22.25;60.77;100640.09;6167888;23;20016;-76
2021/08/12 12:13:35;;;;;;;2.95;2.15;;;;;;;21.86;61.46;100641.34;6190516;23;20008;-76
2021/08/12 12:16:08;;;;;;;2.65;2.38;;;;;;;21.41;62.94;100640.75;6194323;23;20019;-75
2021/08/12 12:18:36;;;;;;;2.70;2.55;;;;;;;21.16;64.51;100636.09;6166808;23;19993;-75
2021/08/12 12:21:08;;;;;;;2.40;2.30;;;;;;;21.06;65.65;100648.41;6192881;23;20005;-75
2021/08/12 12:23:36;;;;;;;2.40;2.20;;;;;;;20.96;65.66;100635.69;6192657;23;20032;-76
2021/08/12 12:26:02;;;;;;;2.17;2.08;;;;;;;20.95;65.95;100639.59;6166255;23;20039;-76
2021/08/12 12:28:30;;;;;;;2.33;2.13;;;;;;;20.88;65.96;100633.72;6165529;23;20020;-75
2021/08/12 12:30:55;;;;;;;5.05;2.45;;;;;;;20.84;65.95;100638.34;6166760;23;20100;-75
2021/08/12 12:33:24;;;;;;;2.72;2.58;;;;;;;20.85;65.98;100628.84;6163515;23;20018;-76
2021/08/12 12:35:51;;;;;;;2.95;2.75;;;;;;;20.72;66.57;100625.94;6189912;23;20044;-74
2021/08/12 12:38:21;;;;;;;6.03;2.63;;;;;;;20.77;67.04;100643.59;6192287;23;20040;-75
2021/08/12 12:40:47;;;;;;;2.60;2.40;;;;;;;20.77;66.98;100638.03;6189113;23;20008;-76
2021/08/12 12:43:14;;;;;;;2.85;2.38;;;;;;;20.78;66.97;100636.88;6188415;23;20009;-75
2021/08/12 12:45:47;;;;;;;3.00;2.70;;;;;;;20.70;67.35;100642.09;6164445;23;20013;-75
2021/08/12 12:48:12;;;;;;;2.90;2.70;;;;;;;20.64;67.69;100668.41;6165409;23;20013;-75
2021/08/12 12:50:46;;;;;;;3.55;2.67;;;;;;;20.61;68.56;100646.84;6162688;23;20020;-76
2021/08/12 12:53:12;;;;;;;3.65;2.53;;;;;;;20.61;69.03;100646.84;6191924;23;20001;-76
2021/08/12 12:55:45;;;;;;;2.60;2.40;;;;;;;20.79;68.39;100642.09;6191841;23;20009;-76
2021/08/12 12:58:18;;;;;;;4.55;2.95;;;;;;;21.02;67.44;100639.91;6191088;23;20409;-77
2021/08/12 13:00:56;;;;;;;3.80;3.60;;;;;;;20.99;66.42;100635.03;6165833;23;20454;-76
2021/08/12 13:03:34;;;;;;;3.30;3.00;;;;;;;20.91;66.93;100635.88;6192018;23;20079;-76
2021/08/12 13:06:03;;;;;;;4.60;2.55;;;;;;;21.03;67.08;100641.56;6190907;23;20005;-76
2021/08/12 13:08:36;;;;;;;7.90;2.60;;;;;;;21.36;66.49;100635.38;6166209;23;20062;-76
2021/08/12 13:11:07;;;;;;;2.88;2.72;;;;;;;21.82;66.46;100640.41;6165965;23;20012;-77
2021/08/12 13:13:33;;;;;;;3.90;2.60;;;;;;;22.20;64.52;100631.13;6163180;23;20004;-75
2021/08/12 13:15:58;;;;;;;3.78;2.53;;;;;;;23.34;63.54;100625.25;6191653;23;20000;-75
2021/08/12 13:18:44;;;;;;;2.30;2.05;;;;;;;25.59;60.54;100631.25;6189664;23;20028;-75
2021/08/12 13:21:23;;;;;;;2.17;2.08;;;;;;;27.92;51.13;100622.91;6142863;23;20016;-75
2021/08/12 13:23:53;;;;;;;5.47;2.10;;;;;;;29.50;48.32;100617.41;6191224;23;20092;-76
2021/08/12 13:26:29;;;;;;;1.90;1.80;;;;;;;30.17;44.67;100626.66;6190191;23;20001;-75
2021/08/12 13:29:17;;;;;;;1.77;1.55;;;;;;;29.51;41.91;100627.44;6189646;23;20025;-75
2021/08/12 13:31:43;;;;;;;2.38;1.75;;;;;;;28.63;43.44;100633.47;6187822;23;20012;-75
2021/08/12 13:34:10;;;;;;;1.75;1.65;;;;;;;28.31;44.58;100622.59;6190324;23;20393;-75
2021/08/12 13:36:36;;;;;;;2.30;1.60;;;;;;;28.60;44.14;100622.94;6189616;23;20021;-75
2021/08/12 13:39:02;;;;;;;2.05;1.95;;;;;;;28.66;42.78;100629.88;6162512;23;20695;-75
2021/08/12 13:41:29;;;;;;;2.17;2.08;;;;;;;28.04;43.88;100619.88;6163497;23;20313;-75
2021/08/12 13:43:56;;;;;;;2.10;2.00;;;;;;;27.47;44.86;100619.03;6163613;23;20008;-74
2021/08/12 13:46:21;;;;;;;2.05;1.95;;;;;;;27.71;45.27;100623.38;6163906;23;20036;-75
2021/08/12 13:48:47;;;;;;;1.70;1.60;;;;;;;27.73;44.91;100609.78;6192111;23;20017;-75
2021/08/12 13:51:12;;;;;;;1.42;1.35;;;;;;;27.48;44.83;100609.38;6190324;23;20328;-75
2021/08/12 13:53:40;;;;;;;1.50;1.40;;;;;;;27.17;45.49;100608.47;6165215;23;20005;-75
2021/08/12 13:56:05;;;;;;;2.15;2.05;;;;;;;26.82;46.16;100617.88;6190119;23;20091;-74
2021/08/12 13:58:31;;;;;;;3.55;2.03;;;;;;;26.52;46.60;100618.50;6192154;23;20054;-74
2021/08/12 14:00:57;;;;;;;2.30;2.13;;;;;;;26.55;46.94;100628.97;6133050;23;20013;-74
2021/08/12 14:03:23;;;;;;;1.80;1.70;;;;;;;26.95;46.12;100616.50;6190532;23;20008;-74
2021/08/12 14:05:48;;;;;;;5.50;1.67;;;;;;;26.98;45.28;100615.78;6190540;23;20048;-74
2021/08/12 14:08:17;;;;;;;1.90;1.80;;;;;;;26.81;45.23;100599.44;6164158;23;20093;-75
2021/08/12 14:10:43;;;;;;;1.90;1.80;;;;;;;26.65;46.55;100614.34;6165159;23;20008;-74
2021/08/12 14:13:09;;;;;;;2.25;1.73;;;;;;;26.64;46.53;100609.91;6165048;23;20428;-75
2021/08/12 14:15:34;;;;;;;1.80;1.70;;;;;;;26.84;46.92;100604.31;6164495;23;20009;-75
2021/08/12 14:18:00;;;;;;;2.75;1.70;;;;;;;27.87;45.26;100606.34;6191358;23;20412;-75
2021/08/12 14:20:25;;;;;;;1.63;1.52;;;;;;;29.20;42.89;100612.69;6164925;23;20331;-76
2021/08/12 14:22:51;;;;;;;1.73;1.63;;;;;;;30.08;38.86;100610.94;6164234;23;20013;-75
2021/08/12 14:25:16;;;;;;;1.40;1.40;;;;;;;30.46;38.91;100617.16;6138832;23;20019;-74
2021/08/12 14:27:44;;;;;;;1.48;1.40;;;;;;;31.08;37.52;100622.94;6163718;23;20009;-75
2021/08/12 14:30:10;;;;;;;1.77;1.73;;;;;;;31.56;35.38;100601.94;6161317;23;20009;-75
2021/08/12 14:32:36;;;;;;;1.40;1.30;;;;;;;32.33;34.29;100638.06;6136256;23;20081;-75
2021/08/12 14:35:01;;;;;;;1.48;1.48;;;;;;;32.95;33.09;100615.94;6164558;23;20028;-76
2021/08/12 14:37:27;;;;;;;1.60;1.50;;;;;;;32.22;33.09;100623.19;6192234;23;20031;-77
2021/08/12 14:39:52;;;;;;;1.98;1.88;;;;;;;31.21;34.33;100615.66;6139674;23;20055;-77
2021/08/12 14:42:21;;;;;;;1.50;1.40;;;;;;;30.59;36.35;100599.84;6190902;23;20328;-76
2021/08/12 14:44:46;;;;;;;4.07;1.67;;;;;;;30.55;36.81;100615.94;6191783;23;20004;-76
2021/08/12 14:47:12;;;;;;;1.27;1.27;;;;;;;29.91;36.36;100608.81;6165640;23;20009;-77
2021/08/12 14:49:38;;;;;;;1.95;1.85;;;;;;;28.64;38.78;100609.75;6139648;23;20009;-78
2021/08/12 14:52:04;;;;;;;2.38;2.13;;;;;;;27.78;40.94;100611.44;6165974;23;20080;-76
2021/08/12 14:54:29;;;;;;;2.78;2.10;;;;;;;27.55;42.34;100615.13;6141074;23;20015;-75
2021/08/12 14:56:55;;;;;;;1.73;1.63;;;;;;;27.58;42.60;100605.13;6190429;23;20337;-77
2021/08/12 14:59:20;;;;;;;1.60;1.50;;;;;;;28.14;40.93;100600.69;6166046;23;20012;-77
2021/08/12 15:01:45;;;;;;;1.95;1.85;;;;;;;28.18;39.76;100584.69;6191232;23;20028;-76
2021/08/12 15:04:11;;;;;;;2.90;1.80;;;;;;;27.75;40.86;100589.75;6142400;23;20013;-75
2021/08/12 15:06:36;;;;;;;1.70;1.60;;;;;;;27.40;41.27;100602.06;6192299;23;20043;-77
2021/08/12 15:09:02;;;;;;;2.65;1.80;;;;;;;27.17;42.79;100602.84;6192669;23;20028;-75
2021/08/12 15:11:27;;;;;;;2.05;1.85;;;;;;;27.28;43.53;100606.66;6193730;23;20008;-80
2021/08/12 15:13:53;;;;;;;1.65;1.55;;;;;;;27.30;42.78;100601.47;6194292;23;20013;-79
2021/08/12 15:16:18;;;;;;;1.42;1.33;;;;;;;26.88;43.39;100598.75;6167822;23;20009;-79
2021/08/12 15:18:44;;;;;;;2.20;1.73;;;;;;;26.43;45.06;100623.50;6168097;23;20341;-77
2021/08/12 15:21:10;;;;;;;2.10;1.90;;;;;;;25.79;46.34;100618.13;6142645;23;20013;-75
2021/08/12 15:23:36;;;;;;;2.08;1.95;;;;;;;25.51;47.46;100602.28;6194274;23;20007;-79
2021/08/12 15:26:02;;;;;;;2.20;1.80;;;;;;;25.54;47.55;100598.75;6166727;23;20036;-76
2021/08/12 15:28:27;;;;;;;1.52;1.42;;;;;;;25.65;47.14;100606.59;6193550;23;20008;-77
2021/08/12 15:30:53;;;;;;;1.17;1.17;;;;;;;25.58;46.22;100590.44;6194200;23;20459;-77
2021/08/12 15:33:18;;;;;;;1.58;1.48;;;;;;;25.51;46.98;100590.25;6169471;23;20065;-77
2021/08/12 15:35:44;;;;;;;1.88;1.77;;;;;;;25.51;47.28;100588.28;6191363;23;20055;-76
2021/08/12 15:38:09;;;;;;;3.13;1.30;;;;;;;25.72;46.89;100593.56;6193229;23;20028;-77
2021/08/12 15:40:35;;;;;;;1.88;1.77;;;;;;;26.02;47.10;100592.22;6195120;23;20028;-76
2021/08/12 15:43:01;;;;;;;1.80;1.70;;;;;;;26.78;45.63;100589.78;6194787;23;20036;-76
2021/08/12 15:45:26;;;;;;;1.67;1.55;;;;;;;27.03;44.15;100595.03;6194963;23;20670;-77
2021/08/12 15:47:52;;;;;;;2.30;2.20;;;;;;;26.65;44.63;100597.50;6193988;23;20082;-78
2021/08/12 15:50:17;;;;;;;2.00;1.90;;;;;;;26.07;45.88;100597.56;6164604;23;20071;-77
2021/08/12 15:52:43;;;;;;;1.75;1.60;;;;;;;25.46;47.02;100605.34;6195112;23;20868;-79
2021/08/12 15:55:10;;;;;;;2.28;2.13;;;;;;;24.96;47.84;100590.13;6141798;23;20009;-77
2021/08/12 15:57:36;;;;;;;2.58;2.03;;;;;;;24.70;48.46;100602.59;6191977;23;20136;-76
2021/08/12 16:00:04;;;;;;;2.40;2.30;;;;;;;24.52;49.05;100602.09;6192467;23;20009;-75
2021/08/12 16:02:29;;;;;;;2.13;2.03;;;;;;;24.53;49.34;100593.34;6140765;23;20022;-76
2021/08/12 16:04:55;;;;;;;2.88;2.67;;;;;;;24.43;49.97;100599.47;6192168;23;20012;-78
2021/08/12 16:07:21;;;;;;;2.33;2.22;;;;;;;24.52;50.08;100602.09;6192023;23;20010;-78
2021/08/12 16:09:46;;;;;;;2.03;1.92;;;;;;;24.90;49.45;100595.16;6118593;23;20009;-78
2021/08/12 16:12:12;;;;;;;2.92;2.60;;;;;;;25.29;49.23;100584.16;6140743;23;20024;-76
2021/08/12 16:14:37;;;;;;;3.25;2.30;;;;;;;25.27;48.67;100604.06;6165271;23;20094;-76
2021/08/12 16:17:03;;;;;;;2.38;2.28;;;;;;;25.29;48.75;100600.09;6167032;23;20104;-76
2021/08/12 16:19:28;;;;;;;3.10;2.83;;;;;;;25.61;48.06;100612.94;6191962;23;20496;-74
2021/08/12 16:21:54;;;;;;;2.17;2.03;;;;;;;25.48;48.41;100614.22;6139584;23;20013;-77
2021/08/12 16:24:19;;;;;;;2.15;2.05;;;;;;;24.99;48.45;100620.97;6164852;23;20032;-76
2021/08/12 16:26:45;;;;;;;2.53;2.33;;;;;;;24.36;50.32;100616.81;6141245;23;20008;-76
2021/08/12 16:29:10;;;;;;;3.88;2.10;;;;;;;23.86;52.73;100610.59;6192899;23;20036;-77
2021/08/12 16:31:35;;;;;;;2.38;1.95;;;;;;;23.46;54.58;100636.41;6165767;23;20009;-77
2021/08/12 16:34:01;;;;;;;2.47;1.85;;;;;;;22.93;56.92;100638.19;6165871;23;20025;-77
2021/08/12 16:36:26;;;;;;;2.50;2.33;;;;;;;22.37;59.19;100628.22;6166635;23;20444;-78
2021/08/12 16:38:52;;;;;;;1.75;1.65;;;;;;;21.77;61.83;100628.31;6165673;23;20005;-75
2021/08/12 16:41:17;;;;;;;1.80;1.70;;;;;;;21.39;64.48;100620.81;6193167;23;20005;-77
2021/08/12 16:43:43;;;;;;;1.95;1.80;;;;;;;20.96;67.19;100619.00;6167146;23;20376;-77
2021/08/12 16:46:08;;;;;;;3.20;1.30;;;;;;;20.76;68.48;100623.31;6166011;23;19997;-78
2021/08/12 16:48:34;;;;;;;3.38;1.75;;;;;;;20.42;69.86;100633.28;6167378;23;20005;-78
2021/08/12 16:50:59;;;;;;;1.80;1.70;;;;;;;20.09;70.51;100624.63;6192092;23;20051;-78
2021/08/12 16:53:25;;;;;;;2.30;2.10;;;;;;;19.71;71.56;100626.84;6166394;23;20012;-78
2021/08/12 16:55:50;;;;;;;2.13;2.03;;;;;;;19.54;71.61;100616.53;6164847;23;20460;-77
2021/08/12 16:58:19;;;;;;;5.20;2.40;;;;;;;19.40;72.03;100620.56;6166989;23;20258;-78
2021/08/12 17:00:44;;;;;;;2.10;1.90;;;;;;;19.35;72.23;100616.78;6142499;23;20005;-77
2021/08/12 17:03:10;;;;;;;3.38;3.00;;;;;;;19.29;72.16;100620.84;6142890;23;20009;-76
2021/08/12 17:05:36;;;;;;;3.08;2.88;;;;;;;19.20;72.05;100617.19;6191136;23;20009;-77
2021/08/12 17:08:02;;;;;;;3.45;3.25;;;;;;;19.21;72.28;100624.38;6164933;23;20202;-73
2021/08/12 17:10:27;;;;;;;8.45;3.83;;;;;;;19.31;72.21;100631.63;6167080;23;20052;-73
2021/08/12 17:12:53;;;;;;;4.88;4.55;;;;;;;19.36;73.50;100621.19;6168089;23;20016;-74
2021/08/12 17:15:22;;;;;;;4.18;3.92;;;;;;;19.47;72.72;100620.91;6178397;23;20451;-79
2021/08/12 17:18:02;;;;;;;4.70;3.88;;;;;;;19.48;72.58;100622.56;6129257;23;20012;-78
2021/08/12 17:20:52;;;;;;;6.82;3.53;;;;;;;19.43;71.55;100625.47;6119212;23;20013;-76
2021/08/12 17:24:13;;;;;;;4.75;3.45;;;;;;;19.47;71.93;100626.47;6072086;23;20480;-77
2021/08/12 17:52:34;;;;;;;4.70;4.30;;;;;;;20.26;67.07;100624.66;6067939;23;20849;-76
2021/08/12 18:02:40;;;;;;;7.15;3.40;;;;;;;19.96;68.36;100632.81;6189537;23;20043;-75
2021/08/12 18:05:29;;;;;;;;;;;;;;;;;;;;;
2021/08/12 18:11:37;;;;;;;4.13;3.42;;;;;;;19.42;70.77;100637.69;6187440;23;20016;-75
2021/08/12 18:14:12;;;;;;;2.95;2.67;;;;;;;19.28;71.21;100624.75;6191655;23;20009;-76
2021/08/12 18:17:04;;;;;;;4.28;3.40;;;;;;;19.30;70.91;100614.16;6191337;23;20426;-77
2021/08/12 18:19:35;;;;;;;8.65;3.58;;;;;;;19.30;70.93;100622.50;6162966;23;20012;-76
2021/08/12 18:25:05;;;;;;;3.55;3.22;;;;;;;19.24;71.04;100618.19;6097626;23;20038;-77
2021/08/12 18:28:23;;;;;;;3.72;3.53;;;;;;;19.26;71.38;100638.13;6076140;23;20029;-74
2021/08/12 18:31:33;;;;;;;2.83;2.63;;;;;;;19.22;70.94;100620.50;6093146;23;20007;-75
2021/08/12 18:34:12;;;;;;;;;;;;;;;;;;;;;
2021/08/12 18:40:20;;;;;;;3.95;3.65;;;;;;;19.45;71.46;100662.81;6015098;23;20043;-78
2021/08/12 18:42:55;;;;;;;3.53;3.20;;;;;;;19.27;71.51;100645.28;6168277;23;20005;-77
2021/08/12 18:46:04;;;;;;;;;;;;;;;;;;;;;
2021/08/12 18:52:59;;;;;;;3.00;2.80;;;;;;;19.40;70.75;100662.97;6112550;23;20025;-76
2021/08/12 18:59:38;;;;;;;3.53;3.22;;;;;;;18.91;71.15;100662.88;6036269;23;20008;-74
2021/08/12 19:02:33;;;;;;;4.80;2.67;;;;;;;18.84;70.95;100645.84;5942961;24;20016;-76
2021/08/12 19:05:19;;;;;;;2.55;2.35;;;;;;;18.61;71.56;100634.78;6052522;23;20038;-74
2021/08/12 19:15:24;;;;;;;3.83;1.05;;;;;;;18.32;71.20;100660.13;6077727;23;20014;-75
2021/08/12 19:17:52;;;;;;;3.25;1.52;;;;;;;18.13;71.50;100646.44;5964893;24;20039;-76
2021/08/12 19:20:35;;;;;;;1.50;1.35;;;;;;;18.11;71.55;100673.63;5988160;23;20016;-75
2021/08/12 19:23:08;;;;;;;0.82;0.82;;;;;;;17.86;72.09;100659.19;5985744;24;20008;-76
2021/08/12 19:25:41;;;;;;;2.25;1.42;;;;;;;17.72;72.47;100652.84;5965303;24;20037;-78
2021/08/12 19:28:46;;;;;;;;;;;;;;;;;;;;;
2021/08/12 19:31:12;;;;;;;1.55;1.10;;;;;;;17.58;71.97;100642.63;6072444;23;20041;-76
2021/08/12 19:33:42;;;;;;;3.95;0.80;;;;;;;17.57;72.43;100660.34;6073804;23;20015;-76
2021/08/12 19:36:08;;;;;;;1.17;1.02;;;;;;;17.54;72.49;100663.72;6047856;23;20015;-76
2021/08/12 19:38:33;;;;;;;1.05;0.90;;;;;;;17.49;72.52;100663.81;6096590;23;20069;-76
2021/08/12 19:40:59;;;;;;;1.88;0.73;;;;;;;17.42;72.62;100674.44;6139832;23;20067;-76